Owen Sound, Canada
Current Conditions -  °F | °C
As of 2:00 PM on Friday 24 Oct 2014 (Local Time) from CYVV Reporting Station
Broken Clouds Broken Clouds  
Wind Chill: 11°   Ceiling: 3000
Heat Index: 11°   Visibility: 15mi
Dew Point:   Wind: 8mph
Humidity: 82%   Direction: 230°SW
Pressure: 29.98"   Gusts: NA
Location:  44.56°N, 80.94°W
Report Text: CYVV 241800Z 23007KT 15SM BKN030 BKN080 11/08 A2998 RMK SC5AC2SLP159
Loading
Personal Weather Stations






























Interactive Weather Map
Tropical Storm Tracking
New forecast layout! Learn more

10-Day Weather Forecast

Advertisements
Track Severe Weather on mobile